Terminal Aerodrome Forecast
Issued by NWS

Home | Current Version | Previous Version | Text Only | Print | Product List | Glossary On
Versions: 1 2 3 4 5 6 7 8 9 10 11 12 13 14 15
000
FTUS43 KIWX 231700
TAFSBN
TAF
KSBN 231729Z 2318/2418 34008KT P6SM SCT250
     FM240200 11005KT P6SM BKN080
     FM241400 14016G26KT P6SM SCT050=

USA.gov is the U.S. government's official web portal to all federal, state and local government web resources and services.